Aviation Digital Data Service (ADDS)

Output produced by METARs form (1920 UTC 23 July 2017)
found at http://www.aviationweather.gov/adds/metars/
 
KTHV 231853Z AUTO 00000KT 10SM FEW044 SCT065 31/22 A2976 RMK AO2 LTG DSNT E AND SE SLP074 T03110222
KTHV 231753Z AUTO VRB04KT 10SM BKN034 BKN046 OVC085 31/23 A2978 RMK AO2 SLP081 T03060228 10306 20239 58005
KTHV 231653Z AUTO 19004KT 10SM SCT030 BKN039 BKN070 29/23 A2980 RMK AO2 SLP089 T02890233
KTHV 231553Z AUTO 00000KT 10SM FEW026 SCT042 BKN050 28/23 A2980 RMK AO2 SLP090 T02830228
KTHV 231507Z AUTO 00000KT 10SM FEW022 SCT030 BKN038 28/23 A2979 RMK AO2 T02830228
KTHV 231453Z AUTO 00000KT 10SM FEW021 BKN029 27/23 A2980 RMK AO2 SLP087 T02720228 56002
KTHV 231449Z AUTO VRB03KT 10SM FEW021 SCT027 SCT031 28/23 A2980 RMK AO2
KTHV 231442Z AUTO VRB03KT 10SM SCT021 BKN028 27/23 A2980 RMK AO2 T02720228
KTHV 231353Z AUTO 00000KT 10SM SCT021 27/23 A2980 RMK AO2 SLP089 T02670228
KTHV 231253Z AUTO 24003KT 10SM CLR 26/23 A2980 RMK AO2 SLP090 T02560228
KTHV 231201Z AUTO 26003KT 10SM SCT025 24/22 A2980 RMK AO2 T02390222
KTHV 231153Z AUTO 28003KT 10SM BKN025 23/22 A2979 RMK AO2 SLP087 70001 T02330222 10233 20211 53010
KTHV 231132Z AUTO 28004KT 10SM BKN026 23/22 A2979 RMK AO2 T02330222
KTHV 231053Z AUTO 00000KT 9SM SCT033 22/22 A2977 RMK AO2 SLP079 T02220217
KTHV 230953Z AUTO 00000KT 10SM SCT050 22/22 A2976 RMK AO2 SLP076 T02220217
KTHV 230853Z AUTO 00000KT 10SM SCT047 23/22 A2977 RMK AO2 SLP077 T02280217 56000
KTHV 230753Z AUTO 00000KT 10SM CLR 22/22 A2977 RMK AO2 SLP077 T02220217
KTHV 230653Z AUTO 00000KT 10SM CLR 23/22 A2976 RMK AO2 SLP074 T02280217
KTHV 230553Z AUTO VRB03KT 10SM SCT080 23/22 A2977 RMK AO2 SLP077 60001 T02330222 10244 20228 56005
KTHV 230453Z AUTO 00000KT 10SM CLR 23/22 A2977 RMK AO2 SLP077 T02330222 403110194
KTHV 230353Z AUTO 00000KT 10SM FEW100 23/23 A2978 RMK AO2 RAE0256 SLP080 P0000 T02280228
KTHV 230253Z AUTO 00000KT 10SM -RA SCT075 BKN120 23/22 A2978 RMK AO2 SLP082 P0001 60001 T02330222 50002
KTHV 230153Z AUTO 27005KT 10SM -RA FEW110 23/22 A2979 RMK AO2 SLP087 P0000 T02330222
KTHV 230053Z AUTO VRB04KT 9SM -RA CLR 24/22 A2979 RMK AO2 RAB50 SLP084 P0000 T02440217
KTHV 222353Z AUTO 25006KT 10SM CLR 24/22 A2978 RMK AO2 SLP081 60000 T02440217 10306 20244 55007
KTHV 222253Z AUTO 24007KT 10SM FEW120 26/22 A2976 RMK AO2 SLP076 T02560217
KTHV 222153Z AUTO 25009G16KT 10SM CLR 26/22 A2977 RMK AO2 SLP079 T02610217
KTHV 222053Z AUTO 24008KT 10SM CLR 26/23 A2980 RMK AO2 RAB23E35 SLP088 P0000 60000 T02610228 56021
KTHV 221953Z AUTO 23008KT 10SM FEW033 FEW042 SCT100 27/23 A2981 RMK AO2 RAB1858E39 SLP094 P0000 T02670233
KTHV 221853Z AUTO 20007KT 10SM FEW043 SCT065 BKN090 29/22 A2983 RMK AO2 SLP098 T02890222
KTHV 221753Z AUTO VRB05KT 10SM SCT042 BKN085 30/22 A2986 RMK AO2 SLP108 T03000217 10311 20244 58018
KTHV 221653Z AUTO 25005KT 10SM BKN095 BKN120 30/21 A2988 RMK AO2 SLP117 T03000211
KTHV 221553Z AUTO 21004KT 10SM FEW120 30/22 A2990 RMK AO2 SLP120 T03000217
KTHV 221453Z AUTO 00000KT 10SM CLR 29/21 A2991 RMK AO2 SLP126 T02890206 58003
KTHV 221353Z AUTO 00000KT 10SM CLR 28/22 A2992 RMK AO2 SLP130 T02780217
KTHV 221253Z AUTO 08003KT 10SM CLR 26/22 A2992 RMK AO2 SLP130 T02610222
KTHV 221153Z AUTO 00000KT 8SM CLR 24/23 A2992 RMK AO2 SLP130 T02440233 10244 20194 51010
KTHV 221053Z AUTO 28003KT 5SM BR CLR 22/22 A2991 RMK AO2 SLP126 T02170217
KTHV 221044Z AUTO 26003KT 3SM BR CLR 21/21 A2991 RMK AO2 T02110211
KTHV 221021Z AUTO 00000KT 2 1/2SM BR CLR 20/20 A2991 RMK AO2 T02000200
KTHV 221007Z AUTO 00000KT 1 1/2SM BR CLR 20/20 A2991 RMK AO2 T02000200
KTHV 220959Z AUTO 00000KT 2SM BR CLR 20/20 A2991 RMK AO2 T02000200
KTHV 220953Z AUTO 00000KT 4SM BR CLR 21/21 A2991 RMK AO2 SLP124 T02060206
KTHV 220914Z AUTO 00000KT 4SM BR CLR 20/20 A2990 RMK AO2 T02000200
KTHV 220906Z AUTO 26003KT 2 1/2SM BR CLR 20/20 A2990 RMK AO2 T02000200
KTHV 220900Z AUTO 28003KT 1 1/2SM BR CLR 20/20 A2990 RMK AO2 T02000200
KTHV 220853Z AUTO 33003KT 2SM BR CLR 19/19 A2989 RMK AO2 SLP120 T01940194 55007
KTHV 220851Z AUTO 00000KT 2SM BR CLR 20/20 A2989 RMK AO2
KTHV 220815Z AUTO 00000KT 3SM BR CLR 21/21 A2989 RMK AO2 T02060206
KTHV 220807Z AUTO 00000KT 2SM BR CLR 21/21 A2989 RMK AO2 T02060206
KTHV 220753Z AUTO 00000KT 3SM BR CLR 20/20 A2989 RMK AO2 SLP119 T02000200